sensor_id;sensor_type;location;lat;lon;timestamp;P1;durP1;ratioP1;P2;durP2;ratioP2
68256;SDS011;55069;51.568;4.656;2023-10-08T00:01:53;10.88;;;3.67;;
68256;SDS011;55069;51.568;4.656;2023-10-08T00:04:20;11.47;;;3.67;;
68256;SDS011;55069;51.568;4.656;2023-10-08T00:06:46;11.52;;;3.85;;
68256;SDS011;55069;51.568;4.656;2023-10-08T00:09:12;10.40;;;3.45;;
68256;SDS011;55069;51.568;4.656;2023-10-08T00:11:39;9.43;;;3.80;;
68256;SDS011;55069;51.568;4.656;2023-10-08T00:14:06;12.45;;;4.13;;
68256;SDS011;55069;51.568;4.656;2023-10-08T00:16:35;18.10;;;4.45;;
68256;SDS011;55069;51.568;4.656;2023-10-08T00:19:04;14.38;;;3.88;;
68256;SDS011;55069;51.568;4.656;2023-10-08T00:21:34;11.75;;;4.18;;
68256;SDS011;55069;51.568;4.656;2023-10-08T00:24:01;13.40;;;3.93;;
68256;SDS011;55069;51.568;4.656;2023-10-08T00:26:31;11.20;;;3.75;;
68256;SDS011;55069;51.568;4.656;2023-10-08T00:29:03;19.17;;;4.38;;
68256;SDS011;55069;51.568;4.656;2023-10-08T00:31:47;13.75;;;4.00;;
68256;SDS011;55069;51.568;4.656;2023-10-08T00:34:15;10.67;;;3.67;;
68256;SDS011;55069;51.568;4.656;2023-10-08T00:36:45;14.45;;;4.47;;
68256;SDS011;55069;51.568;4.656;2023-10-08T00:39:13;10.18;;;4.05;;
68256;SDS011;55069;51.568;4.656;2023-10-08T00:41:43;17.55;;;4.82;;
68256;SDS011;55069;51.568;4.656;2023-10-08T00:44:10;16.20;;;4.45;;
68256;SDS011;55069;51.568;4.656;2023-10-08T00:46:44;11.57;;;4.30;;
68256;SDS011;55069;51.568;4.656;2023-10-08T00:49:16;8.80;;;3.47;;
68256;SDS011;55069;51.568;4.656;2023-10-08T00:52:03;8.90;;;3.60;;
68256;SDS011;55069;51.568;4.656;2023-10-08T00:54:33;14.88;;;4.35;;
68256;SDS011;55069;51.568;4.656;2023-10-08T00:57:12;10.55;;;3.72;;
68256;SDS011;55069;51.568;4.656;2023-10-08T00:59:45;9.57;;;3.70;;
68256;SDS011;55069;51.568;4.656;2023-10-08T01:02:21;15.63;;;4.60;;
68256;SDS011;55069;51.568;4.656;2023-10-08T01:04:52;15.55;;;4.07;;
68256;SDS011;55069;51.568;4.656;2023-10-08T01:07:19;10.48;;;3.83;;
68256;SDS011;55069;51.568;4.656;2023-10-08T01:09:47;18.05;;;4.65;;
68256;SDS011;55069;51.568;4.656;2023-10-08T01:12:19;11.57;;;3.67;;
68256;SDS011;55069;51.568;4.656;2023-10-08T01:14:49;10.63;;;3.47;;
68256;SDS011;55069;51.568;4.656;2023-10-08T01:17:19;12.45;;;3.88;;
68256;SDS011;55069;51.568;4.656;2023-10-08T01:19:52;9.40;;;3.33;;
68256;SDS011;55069;51.568;4.656;2023-10-08T01:22:25;12.73;;;3.70;;
68256;SDS011;55069;51.568;4.656;2023-10-08T01:24:54;8.97;;;3.80;;
68256;SDS011;55069;51.568;4.656;2023-10-08T01:27:19;10.32;;;3.40;;
68256;SDS011;55069;51.568;4.656;2023-10-08T01:29:50;10.67;;;3.43;;
68256;SDS011;55069;51.568;4.656;2023-10-08T01:32:20;13.35;;;4.13;;
68256;SDS011;55069;51.568;4.656;2023-10-08T01:34:47;10.45;;;3.83;;
68256;SDS011;55069;51.568;4.656;2023-10-08T01:37:14;11.70;;;3.60;;
68256;SDS011;55069;51.568;4.656;2023-10-08T01:39:46;13.85;;;4.15;;
68256;SDS011;55069;51.568;4.656;2023-10-08T01:42:15;9.20;;;4.27;;
68256;SDS011;55069;51.568;4.656;2023-10-08T01:44:46;15.65;;;4.40;;
68256;SDS011;55069;51.568;4.656;2023-10-08T01:47:14;12.98;;;3.60;;
68256;SDS011;55069;51.568;4.656;2023-10-08T01:49:41;12.60;;;3.60;;
68256;SDS011;55069;51.568;4.656;2023-10-08T01:52:11;11.20;;;3.55;;
68256;SDS011;55069;51.568;4.656;2023-10-08T01:54:49;16.73;;;3.97;;
68256;SDS011;55069;51.568;4.656;2023-10-08T01:57:18;16.73;;;3.78;;
68256;SDS011;55069;51.568;4.656;2023-10-08T01:59:44;17.10;;;4.63;;
68256;SDS011;55069;51.568;4.656;2023-10-08T02:02:10;17.33;;;4.10;;
68256;SDS011;55069;51.568;4.656;2023-10-08T02:04:38;11.73;;;3.67;;
68256;SDS011;55069;51.568;4.656;2023-10-08T02:07:05;14.95;;;3.33;;
68256;SDS011;55069;51.568;4.656;2023-10-08T02:09:40;12.30;;;3.97;;
68256;SDS011;55069;51.568;4.656;2023-10-08T02:12:06;13.70;;;3.83;;
68256;SDS011;55069;51.568;4.656;2023-10-08T02:14:31;12.38;;;3.38;;
68256;SDS011;55069;51.568;4.656;2023-10-08T02:17:01;12.57;;;4.22;;
68256;SDS011;55069;51.568;4.656;2023-10-08T02:19:31;8.53;;;3.20;;
68256;SDS011;55069;51.568;4.656;2023-10-08T02:21:57;18.48;;;4.10;;
68256;SDS011;55069;51.568;4.656;2023-10-08T02:24:23;14.20;;;4.38;;
68256;SDS011;55069;51.568;4.656;2023-10-08T02:26:53;7.88;;;3.80;;
68256;SDS011;55069;51.568;4.656;2023-10-08T02:29:21;10.60;;;4.10;;
68256;SDS011;55069;51.568;4.656;2023-10-08T02:31:50;14.45;;;4.35;;
68256;SDS011;55069;51.568;4.656;2023-10-08T02:34:15;14.50;;;4.27;;
68256;SDS011;55069;51.568;4.656;2023-10-08T02:36:41;15.45;;;4.28;;
68256;SDS011;55069;51.568;4.656;2023-10-08T02:39:07;16.52;;;4.15;;
68256;SDS011;55069;51.568;4.656;2023-10-08T02:41:59;13.43;;;4.87;;
68256;SDS011;55069;51.568;4.656;2023-10-08T02:44:25;14.10;;;4.68;;
68256;SDS011;55069;51.568;4.656;2023-10-08T02:46:52;15.05;;;4.38;;
68256;SDS011;55069;51.568;4.656;2023-10-08T02:49:19;12.23;;;4.50;;
68256;SDS011;55069;51.568;4.656;2023-10-08T02:51:50;14.60;;;3.70;;
68256;SDS011;55069;51.568;4.656;2023-10-08T02:54:19;13.45;;;4.20;;
68256;SDS011;55069;51.568;4.656;2023-10-08T02:56:49;13.30;;;4.00;;
68256;SDS011;55069;51.568;4.656;2023-10-08T02:59:23;17.50;;;4.57;;
68256;SDS011;55069;51.568;4.656;2023-10-08T03:01:50;13.68;;;4.15;;
68256;SDS011;55069;51.568;4.656;2023-10-08T03:04:17;19.85;;;4.75;;
68256;SDS011;55069;51.568;4.656;2023-10-08T03:06:46;14.07;;;4.00;;
68256;SDS011;55069;51.568;4.656;2023-10-08T03:09:17;18.63;;;4.53;;
68256;SDS011;55069;51.568;4.656;2023-10-08T03:11:48;17.95;;;4.75;;
68256;SDS011;55069;51.568;4.656;2023-10-08T03:14:15;13.35;;;4.32;;
68256;SDS011;55069;51.568;4.656;2023-10-08T03:16:48;17.67;;;5.20;;
68256;SDS011;55069;51.568;4.656;2023-10-08T03:19:16;17.20;;;4.35;;
68256;SDS011;55069;51.568;4.656;2023-10-08T03:21:45;18.30;;;5.10;;
68256;SDS011;55069;51.568;4.656;2023-10-08T03:24:16;16.40;;;5.15;;
68256;SDS011;55069;51.568;4.656;2023-10-08T03:27:02;13.23;;;4.90;;
68256;SDS011;55069;51.568;4.656;2023-10-08T03:29:33;12.32;;;4.00;;
68256;SDS011;55069;51.568;4.656;2023-10-08T03:32:09;15.65;;;4.53;;
68256;SDS011;55069;51.568;4.656;2023-10-08T03:34:51;15.70;;;5.00;;
68256;SDS011;55069;51.568;4.656;2023-10-08T03:37:20;12.98;;;3.90;;
68256;SDS011;55069;51.568;4.656;2023-10-08T03:39:54;14.35;;;4.57;;
68256;SDS011;55069;51.568;4.656;2023-10-08T03:42:32;13.85;;;4.20;;
68256;SDS011;55069;51.568;4.656;2023-10-08T03:45:05;11.50;;;4.13;;
68256;SDS011;55069;51.568;4.656;2023-10-08T03:47:38;15.83;;;4.53;;
68256;SDS011;55069;51.568;4.656;2023-10-08T03:50:07;13.27;;;4.38;;
68256;SDS011;55069;51.568;4.656;2023-10-08T03:52:35;12.70;;;4.07;;
68256;SDS011;55069;51.568;4.656;2023-10-08T03:55:06;16.27;;;4.50;;
68256;SDS011;55069;51.568;4.656;2023-10-08T03:57:43;10.48;;;4.03;;
68256;SDS011;55069;51.568;4.656;2023-10-08T04:00:13;17.63;;;4.50;;
68256;SDS011;55069;51.568;4.656;2023-10-08T04:02:43;15.02;;;4.57;;
68256;SDS011;55069;51.568;4.656;2023-10-08T04:05:20;14.82;;;4.60;;
68256;SDS011;55069;51.568;4.656;2023-10-08T04:07:52;13.25;;;4.30;;
68256;SDS011;55069;51.568;4.656;2023-10-08T04:10:24;20.38;;;5.05;;
68256;SDS011;55069;51.568;4.656;2023-10-08T04:13:14;15.97;;;5.17;;
68256;SDS011;55069;51.568;4.656;2023-10-08T04:15:41;15.40;;;4.72;;
68256;SDS011;55069;51.568;4.656;2023-10-08T04:18:10;17.85;;;4.63;;
68256;SDS011;55069;51.568;4.656;2023-10-08T04:20:38;13.32;;;4.70;;
68256;SDS011;55069;51.568;4.656;2023-10-08T04:23:12;13.83;;;4.53;;
68256;SDS011;55069;51.568;4.656;2023-10-08T04:25:46;13.95;;;4.82;;
68256;SDS011;55069;51.568;4.656;2023-10-08T04:28:19;16.35;;;5.05;;
68256;SDS011;55069;51.568;4.656;2023-10-08T04:30:46;15.20;;;4.60;;
68256;SDS011;55069;51.568;4.656;2023-10-08T04:33:15;16.17;;;4.60;;
68256;SDS011;55069;51.568;4.656;2023-10-08T04:35:42;12.15;;;4.45;;
68256;SDS011;55069;51.568;4.656;2023-10-08T04:38:18;13.83;;;4.33;;
68256;SDS011;55069;51.568;4.656;2023-10-08T04:40:47;10.68;;;3.65;;
68256;SDS011;55069;51.568;4.656;2023-10-08T04:43:23;15.85;;;4.25;;
68256;SDS011;55069;51.568;4.656;2023-10-08T04:45:56;16.75;;;4.93;;
68256;SDS011;55069;51.568;4.656;2023-10-08T04:48:25;15.32;;;5.35;;
68256;SDS011;55069;51.568;4.656;2023-10-08T04:50:52;11.47;;;4.30;;
68256;SDS011;55069;51.568;4.656;2023-10-08T04:53:31;11.65;;;4.65;;
68256;SDS011;55069;51.568;4.656;2023-10-08T04:56:01;17.48;;;5.60;;
68256;SDS011;55069;51.568;4.656;2023-10-08T04:58:31;14.38;;;5.47;;
68256;SDS011;55069;51.568;4.656;2023-10-08T05:01:05;15.80;;;4.78;;
68256;SDS011;55069;51.568;4.656;2023-10-08T05:03:55;20.00;;;6.53;;
68256;SDS011;55069;51.568;4.656;2023-10-08T05:06:30;17.05;;;4.93;;
68256;SDS011;55069;51.568;4.656;2023-10-08T05:09:00;13.93;;;5.25;;
68256;SDS011;55069;51.568;4.656;2023-10-08T05:11:35;14.70;;;4.53;;
68256;SDS011;55069;51.568;4.656;2023-10-08T05:14:12;19.95;;;5.40;;
68256;SDS011;55069;51.568;4.656;2023-10-08T05:19:34;13.40;;;4.93;;
68256;SDS011;55069;51.568;4.656;2023-10-08T05:22:09;13.25;;;4.78;;
68256;SDS011;55069;51.568;4.656;2023-10-08T05:24:55;22.13;;;5.97;;
68256;SDS011;55069;51.568;4.656;2023-10-08T05:27:33;14.40;;;4.80;;
68256;SDS011;55069;51.568;4.656;2023-10-08T05:30:25;14.83;;;4.80;;
68256;SDS011;55069;51.568;4.656;2023-10-08T05:33:07;13.10;;;5.07;;
68256;SDS011;55069;51.568;4.656;2023-10-08T05:35:49;14.45;;;4.78;;
68256;SDS011;55069;51.568;4.656;2023-10-08T05:38:16;14.43;;;5.38;;
68256;SDS011;55069;51.568;4.656;2023-10-08T05:40:55;12.87;;;4.70;;
68256;SDS011;55069;51.568;4.656;2023-10-08T05:43:45;13.43;;;5.18;;
68256;SDS011;55069;51.568;4.656;2023-10-08T05:46:10;17.27;;;5.35;;
68256;SDS011;55069;51.568;4.656;2023-10-08T05:48:56;11.63;;;4.85;;
68256;SDS011;55069;51.568;4.656;2023-10-08T05:51:29;15.82;;;5.13;;
68256;SDS011;55069;51.568;4.656;2023-10-08T05:54:31;15.07;;;5.23;;
68256;SDS011;55069;51.568;4.656;2023-10-08T05:56:58;12.15;;;5.40;;
68256;SDS011;55069;51.568;4.656;2023-10-08T05:59:37;18.02;;;5.60;;
68256;SDS011;55069;51.568;4.656;2023-10-08T06:02:31;17.20;;;5.18;;
68256;SDS011;55069;51.568;4.656;2023-10-08T06:05:04;16.17;;;5.60;;
68256;SDS011;55069;51.568;4.656;2023-10-08T06:07:51;13.53;;;5.83;;
68256;SDS011;55069;51.568;4.656;2023-10-08T06:10:22;14.30;;;5.63;;
68256;SDS011;55069;51.568;4.656;2023-10-08T06:13:04;16.90;;;6.20;;
68256;SDS011;55069;51.568;4.656;2023-10-08T06:15:49;17.40;;;5.75;;
68256;SDS011;55069;51.568;4.656;2023-10-08T06:18:22;17.80;;;7.05;;
68256;SDS011;55069;51.568;4.656;2023-10-08T06:20:55;16.90;;;6.60;;
68256;SDS011;55069;51.568;4.656;2023-10-08T06:23:29;19.02;;;7.70;;
68256;SDS011;55069;51.568;4.656;2023-10-08T06:25:58;24.50;;;8.07;;
68256;SDS011;55069;51.568;4.656;2023-10-08T06:28:36;18.33;;;7.63;;
68256;SDS011;55069;51.568;4.656;2023-10-08T06:31:06;18.33;;;7.15;;
68256;SDS011;55069;51.568;4.656;2023-10-08T06:33:37;23.67;;;6.60;;
68256;SDS011;55069;51.568;4.656;2023-10-08T06:36:06;24.08;;;7.47;;
68256;SDS011;55069;51.568;4.656;2023-10-08T06:38:38;18.08;;;8.20;;
68256;SDS011;55069;51.568;4.656;2023-10-08T06:41:06;22.05;;;7.88;;
68256;SDS011;55069;51.568;4.656;2023-10-08T06:43:38;14.95;;;6.32;;
68256;SDS011;55069;51.568;4.656;2023-10-08T06:46:05;16.97;;;6.50;;
68256;SDS011;55069;51.568;4.656;2023-10-08T06:48:37;19.75;;;7.78;;
68256;SDS011;55069;51.568;4.656;2023-10-08T06:51:07;15.02;;;6.60;;
68256;SDS011;55069;51.568;4.656;2023-10-08T06:53:41;22.95;;;7.22;;
68256;SDS011;55069;51.568;4.656;2023-10-08T06:56:07;21.85;;;8.20;;
68256;SDS011;55069;51.568;4.656;2023-10-08T06:58:37;27.90;;;8.43;;
68256;SDS011;55069;51.568;4.656;2023-10-08T07:01:03;18.13;;;7.15;;
68256;SDS011;55069;51.568;4.656;2023-10-08T07:03:33;27.17;;;8.43;;
68256;SDS011;55069;51.568;4.656;2023-10-08T07:06:00;20.77;;;8.90;;
68256;SDS011;55069;51.568;4.656;2023-10-08T07:08:28;17.27;;;6.78;;
68256;SDS011;55069;51.568;4.656;2023-10-08T07:11:03;20.27;;;6.80;;
68256;SDS011;55069;51.568;4.656;2023-10-08T07:13:36;19.95;;;7.47;;
68256;SDS011;55069;51.568;4.656;2023-10-08T07:16:02;15.87;;;6.80;;
68256;SDS011;55069;51.568;4.656;2023-10-08T07:18:29;19.40;;;6.70;;
68256;SDS011;55069;51.568;4.656;2023-10-08T07:20:56;17.17;;;6.28;;
68256;SDS011;55069;51.568;4.656;2023-10-08T07:23:26;19.20;;;6.88;;
68256;SDS011;55069;51.568;4.656;2023-10-08T07:25:55;17.08;;;6.88;;
68256;SDS011;55069;51.568;4.656;2023-10-08T07:28:30;29.87;;;8.77;;
68256;SDS011;55069;51.568;4.656;2023-10-08T07:30:56;18.08;;;6.95;;
68256;SDS011;55069;51.568;4.656;2023-10-08T07:33:22;19.50;;;7.10;;
68256;SDS011;55069;51.568;4.656;2023-10-08T07:35:50;21.42;;;7.68;;
68256;SDS011;55069;51.568;4.656;2023-10-08T07:38:20;15.57;;;7.07;;
68256;SDS011;55069;51.568;4.656;2023-10-08T07:40:47;23.17;;;7.85;;
68256;SDS011;55069;51.568;4.656;2023-10-08T07:43:13;17.92;;;7.72;;
68256;SDS011;55069;51.568;4.656;2023-10-08T07:45:39;22.40;;;8.50;;
68256;SDS011;55069;51.568;4.656;2023-10-08T07:48:10;25.75;;;8.77;;
68256;SDS011;55069;51.568;4.656;2023-10-08T07:50:40;21.30;;;8.35;;
68256;SDS011;55069;51.568;4.656;2023-10-08T07:53:06;24.00;;;7.93;;
68256;SDS011;55069;51.568;4.656;2023-10-08T07:55:34;18.00;;;7.73;;
68256;SDS011;55069;51.568;4.656;2023-10-08T07:58:00;22.60;;;8.27;;
68256;SDS011;55069;51.568;4.656;2023-10-08T08:00:28;20.33;;;8.20;;
68256;SDS011;55069;51.568;4.656;2023-10-08T08:02:56;21.57;;;8.13;;
68256;SDS011;55069;51.568;4.656;2023-10-08T08:05:23;20.50;;;8.85;;
68256;SDS011;55069;51.568;4.656;2023-10-08T08:07:48;22.77;;;8.98;;
68256;SDS011;55069;51.568;4.656;2023-10-08T08:10:18;20.50;;;8.80;;
68256;SDS011;55069;51.568;4.656;2023-10-08T08:12:44;21.07;;;8.77;;
68256;SDS011;55069;51.568;4.656;2023-10-08T08:15:10;31.27;;;10.02;;
68256;SDS011;55069;51.568;4.656;2023-10-08T08:17:42;27.63;;;9.48;;
68256;SDS011;55069;51.568;4.656;2023-10-08T08:20:08;24.02;;;9.52;;
68256;SDS011;55069;51.568;4.656;2023-10-08T08:22:43;23.52;;;8.55;;
68256;SDS011;55069;51.568;4.656;2023-10-08T08:25:15;28.47;;;9.17;;
68256;SDS011;55069;51.568;4.656;2023-10-08T08:27:51;28.83;;;9.45;;
68256;SDS011;55069;51.568;4.656;2023-10-08T08:30:18;25.73;;;8.70;;
68256;SDS011;55069;51.568;4.656;2023-10-08T08:32:45;31.15;;;10.02;;
68256;SDS011;55069;51.568;4.656;2023-10-08T08:35:14;22.48;;;9.60;;
68256;SDS011;55069;51.568;4.656;2023-10-08T08:37:45;26.17;;;10.53;;
68256;SDS011;55069;51.568;4.656;2023-10-08T08:40:11;22.27;;;9.45;;
68256;SDS011;55069;51.568;4.656;2023-10-08T08:42:44;25.58;;;10.52;;
68256;SDS011;55069;51.568;4.656;2023-10-08T08:45:12;28.48;;;10.50;;
68256;SDS011;55069;51.568;4.656;2023-10-08T08:47:41;20.70;;;9.63;;
68256;SDS011;55069;51.568;4.656;2023-10-08T08:50:07;30.97;;;10.73;;
68256;SDS011;55069;51.568;4.656;2023-10-08T08:52:36;32.13;;;10.65;;
68256;SDS011;55069;51.568;4.656;2023-10-08T08:55:05;30.47;;;11.80;;
68256;SDS011;55069;51.568;4.656;2023-10-08T08:57:39;37.75;;;11.75;;
68256;SDS011;55069;51.568;4.656;2023-10-08T09:00:07;36.50;;;12.43;;
68256;SDS011;55069;51.568;4.656;2023-10-08T09:02:38;31.80;;;12.07;;
68256;SDS011;55069;51.568;4.656;2023-10-08T09:05:04;36.30;;;11.77;;
68256;SDS011;55069;51.568;4.656;2023-10-08T09:10:24;32.25;;;11.45;;
68256;SDS011;55069;51.568;4.656;2023-10-08T09:12:54;38.00;;;11.68;;
68256;SDS011;55069;51.568;4.656;2023-10-08T09:15:26;32.53;;;12.80;;
68256;SDS011;55069;51.568;4.656;2023-10-08T09:17:53;36.13;;;13.23;;
68256;SDS011;55069;51.568;4.656;2023-10-08T09:20:20;35.90;;;13.40;;
68256;SDS011;55069;51.568;4.656;2023-10-08T09:22:46;34.22;;;13.40;;
68256;SDS011;55069;51.568;4.656;2023-10-08T09:25:32;33.88;;;13.43;;
68256;SDS011;55069;51.568;4.656;2023-10-08T09:27:59;33.78;;;14.27;;
68256;SDS011;55069;51.568;4.656;2023-10-08T09:30:25;35.10;;;13.88;;
68256;SDS011;55069;51.568;4.656;2023-10-08T09:32:51;33.93;;;13.40;;
68256;SDS011;55069;51.568;4.656;2023-10-08T09:35:17;31.10;;;13.40;;
68256;SDS011;55069;51.568;4.656;2023-10-08T09:37:44;31.52;;;14.32;;
68256;SDS011;55069;51.568;4.656;2023-10-08T09:40:11;31.23;;;13.30;;
68256;SDS011;55069;51.568;4.656;2023-10-08T09:42:37;31.17;;;13.90;;
68256;SDS011;55069;51.568;4.656;2023-10-08T09:45:04;32.78;;;14.70;;
68256;SDS011;55069;51.568;4.656;2023-10-08T09:47:35;34.40;;;14.60;;
68256;SDS011;55069;51.568;4.656;2023-10-08T09:50:04;38.67;;;14.68;;
68256;SDS011;55069;51.568;4.656;2023-10-08T09:52:45;33.97;;;14.33;;
68256;SDS011;55069;51.568;4.656;2023-10-08T09:55:22;32.75;;;14.40;;
68256;SDS011;55069;51.568;4.656;2023-10-08T09:57:48;38.03;;;14.15;;
68256;SDS011;55069;51.568;4.656;2023-10-08T10:00:16;31.83;;;13.63;;
68256;SDS011;55069;51.568;4.656;2023-10-08T10:02:54;34.47;;;13.80;;
68256;SDS011;55069;51.568;4.656;2023-10-08T10:05:21;38.50;;;14.57;;
68256;SDS011;55069;51.568;4.656;2023-10-08T10:07:49;37.50;;;13.40;;
68256;SDS011;55069;51.568;4.656;2023-10-08T10:10:28;38.97;;;13.35;;
68256;SDS011;55069;51.568;4.656;2023-10-08T10:13:00;31.08;;;13.38;;
68256;SDS011;55069;51.568;4.656;2023-10-08T10:15:26;28.07;;;12.47;;
68256;SDS011;55069;51.568;4.656;2023-10-08T10:17:58;38.88;;;14.40;;
68256;SDS011;55069;51.568;4.656;2023-10-08T10:20:33;41.17;;;13.88;;
68256;SDS011;55069;51.568;4.656;2023-10-08T10:22:59;38.17;;;14.40;;
68256;SDS011;55069;51.568;4.656;2023-10-08T10:25:33;33.70;;;14.57;;
68256;SDS011;55069;51.568;4.656;2023-10-08T10:30:31;31.83;;;14.38;;
68256;SDS011;55069;51.568;4.656;2023-10-08T10:33:00;34.33;;;13.60;;
68256;SDS011;55069;51.568;4.656;2023-10-08T10:35:26;29.88;;;13.40;;
68256;SDS011;55069;51.568;4.656;2023-10-08T10:37:53;38.10;;;14.25;;
68256;SDS011;55069;51.568;4.656;2023-10-08T10:40:23;32.47;;;13.50;;
68256;SDS011;55069;51.568;4.656;2023-10-08T10:43:04;34.13;;;13.73;;
68256;SDS011;55069;51.568;4.656;2023-10-08T10:45:32;42.05;;;13.73;;
68256;SDS011;55069;51.568;4.656;2023-10-08T10:48:04;35.83;;;13.30;;
68256;SDS011;55069;51.568;4.656;2023-10-08T10:50:50;34.17;;;13.30;;
68256;SDS011;55069;51.568;4.656;2023-10-08T10:53:38;45.55;;;15.27;;
68256;SDS011;55069;51.568;4.656;2023-10-08T10:56:21;35.40;;;13.37;;
68256;SDS011;55069;51.568;4.656;2023-10-08T10:58:58;43.47;;;13.80;;
68256;SDS011;55069;51.568;4.656;2023-10-08T11:01:27;39.25;;;13.57;;
68256;SDS011;55069;51.568;4.656;2023-10-08T11:04:09;32.88;;;12.95;;
68256;SDS011;55069;51.568;4.656;2023-10-08T11:06:41;35.03;;;13.57;;
68256;SDS011;55069;51.568;4.656;2023-10-08T11:09:09;33.03;;;12.93;;
68256;SDS011;55069;51.568;4.656;2023-10-08T11:11:40;33.40;;;12.30;;
68256;SDS011;55069;51.568;4.656;2023-10-08T11:14:11;37.53;;;13.05;;
68256;SDS011;55069;51.568;4.656;2023-10-08T11:16:44;38.40;;;12.18;;
68256;SDS011;55069;51.568;4.656;2023-10-08T11:19:10;32.83;;;13.55;;
68256;SDS011;55069;51.568;4.656;2023-10-08T11:21:52;35.20;;;13.40;;
68256;SDS011;55069;51.568;4.656;2023-10-08T11:24:27;31.40;;;12.68;;
68256;SDS011;55069;51.568;4.656;2023-10-08T11:26:59;32.95;;;12.63;;
68256;SDS011;55069;51.568;4.656;2023-10-08T11:29:44;37.42;;;13.13;;
68256;SDS011;55069;51.568;4.656;2023-10-08T11:32:11;31.77;;;13.45;;
68256;SDS011;55069;51.568;4.656;2023-10-08T11:34:40;29.87;;;12.07;;
68256;SDS011;55069;51.568;4.656;2023-10-08T11:37:06;30.73;;;13.27;;
68256;SDS011;55069;51.568;4.656;2023-10-08T11:39:45;31.63;;;13.05;;
68256;SDS011;55069;51.568;4.656;2023-10-08T11:42:11;35.65;;;12.43;;
68256;SDS011;55069;51.568;4.656;2023-10-08T11:45:09;30.42;;;12.32;;
68256;SDS011;55069;51.568;4.656;2023-10-08T11:47:52;30.00;;;12.30;;
68256;SDS011;55069;51.568;4.656;2023-10-08T11:50:25;31.90;;;12.00;;
68256;SDS011;55069;51.568;4.656;2023-10-08T11:53:00;34.35;;;13.10;;
68256;SDS011;55069;51.568;4.656;2023-10-08T11:55:28;31.98;;;13.50;;
68256;SDS011;55069;51.568;4.656;2023-10-08T11:57:54;41.63;;;14.43;;
68256;SDS011;55069;51.568;4.656;2023-10-08T12:00:21;28.67;;;13.47;;
68256;SDS011;55069;51.568;4.656;2023-10-08T12:02:51;26.88;;;14.35;;
68256;SDS011;55069;51.568;4.656;2023-10-08T12:05:20;33.70;;;14.65;;
68256;SDS011;55069;51.568;4.656;2023-10-08T12:07:48;32.38;;;14.98;;
68256;SDS011;55069;51.568;4.656;2023-10-08T12:10:20;36.00;;;14.32;;
68256;SDS011;55069;51.568;4.656;2023-10-08T12:12:49;36.77;;;14.87;;
68256;SDS011;55069;51.568;4.656;2023-10-08T12:15:22;27.50;;;14.63;;
68256;SDS011;55069;51.568;4.656;2023-10-08T12:17:51;41.90;;;16.00;;
68256;SDS011;55069;51.568;4.656;2023-10-08T12:20:36;29.75;;;14.85;;
68256;SDS011;55069;51.568;4.656;2023-10-08T12:23:03;30.35;;;15.70;;
68256;SDS011;55069;51.568;4.656;2023-10-08T12:25:29;34.03;;;15.30;;
68256;SDS011;55069;51.568;4.656;2023-10-08T12:27:57;41.45;;;16.40;;
68256;SDS011;55069;51.568;4.656;2023-10-08T12:30:27;37.05;;;15.13;;
68256;SDS011;55069;51.568;4.656;2023-10-08T12:32:56;31.13;;;14.52;;
68256;SDS011;55069;51.568;4.656;2023-10-08T12:35:22;32.25;;;17.15;;
68256;SDS011;55069;51.568;4.656;2023-10-08T12:37:49;34.77;;;17.13;;
68256;SDS011;55069;51.568;4.656;2023-10-08T12:40:15;36.70;;;14.93;;
68256;SDS011;55069;51.568;4.656;2023-10-08T12:42:56;39.33;;;16.35;;
68256;SDS011;55069;51.568;4.656;2023-10-08T12:45:24;43.03;;;15.63;;
68256;SDS011;55069;51.568;4.656;2023-10-08T12:47:52;37.58;;;15.82;;
68256;SDS011;55069;51.568;4.656;2023-10-08T12:50:21;40.30;;;15.23;;
68256;SDS011;55069;51.568;4.656;2023-10-08T12:52:54;32.53;;;16.48;;
68256;SDS011;55069;51.568;4.656;2023-10-08T12:55:23;32.55;;;17.00;;
68256;SDS011;55069;51.568;4.656;2023-10-08T12:57:52;35.17;;;14.68;;
68256;SDS011;55069;51.568;4.656;2023-10-08T13:00:23;40.17;;;15.88;;
68256;SDS011;55069;51.568;4.656;2023-10-08T13:02:49;30.07;;;15.03;;
68256;SDS011;55069;51.568;4.656;2023-10-08T13:05:22;39.20;;;15.35;;
68256;SDS011;55069;51.568;4.656;2023-10-08T13:07:54;36.17;;;16.00;;
68256;SDS011;55069;51.568;4.656;2023-10-08T13:10:21;31.13;;;15.68;;
68256;SDS011;55069;51.568;4.656;2023-10-08T13:12:51;35.53;;;15.98;;
68256;SDS011;55069;51.568;4.656;2023-10-08T13:15:17;32.30;;;14.87;;
68256;SDS011;55069;51.568;4.656;2023-10-08T13:17:42;33.70;;;14.55;;
68256;SDS011;55069;51.568;4.656;2023-10-08T13:20:11;30.75;;;16.20;;
68256;SDS011;55069;51.568;4.656;2023-10-08T13:22:38;33.95;;;16.05;;
68256;SDS011;55069;51.568;4.656;2023-10-08T13:25:05;30.67;;;14.95;;
68256;SDS011;55069;51.568;4.656;2023-10-08T13:27:31;32.15;;;14.75;;
68256;SDS011;55069;51.568;4.656;2023-10-08T13:29:57;35.10;;;15.93;;
68256;SDS011;55069;51.568;4.656;2023-10-08T13:32:24;37.70;;;16.25;;
68256;SDS011;55069;51.568;4.656;2023-10-08T13:34:49;33.50;;;16.23;;
68256;SDS011;55069;51.568;4.656;2023-10-08T13:37:15;38.70;;;16.10;;
68256;SDS011;55069;51.568;4.656;2023-10-08T13:39:41;38.17;;;15.45;;
68256;SDS011;55069;51.568;4.656;2023-10-08T13:42:07;33.75;;;16.15;;
68256;SDS011;55069;51.568;4.656;2023-10-08T13:44:32;35.07;;;16.33;;
68256;SDS011;55069;51.568;4.656;2023-10-08T13:47:00;33.35;;;16.15;;
68256;SDS011;55069;51.568;4.656;2023-10-08T13:49:30;32.97;;;15.48;;
68256;SDS011;55069;51.568;4.656;2023-10-08T13:51:57;33.65;;;16.27;;
68256;SDS011;55069;51.568;4.656;2023-10-08T13:54:23;35.63;;;16.70;;
68256;SDS011;55069;51.568;4.656;2023-10-08T13:56:54;36.25;;;15.90;;
68256;SDS011;55069;51.568;4.656;2023-10-08T13:59:23;32.10;;;15.48;;
68256;SDS011;55069;51.568;4.656;2023-10-08T14:01:49;37.73;;;14.77;;
68256;SDS011;55069;51.568;4.656;2023-10-08T14:04:20;28.05;;;14.45;;
68256;SDS011;55069;51.568;4.656;2023-10-08T14:06:51;37.78;;;16.20;;
68256;SDS011;55069;51.568;4.656;2023-10-08T14:09:17;30.20;;;14.77;;
68256;SDS011;55069;51.568;4.656;2023-10-08T14:11:47;33.20;;;15.77;;
68256;SDS011;55069;51.568;4.656;2023-10-08T14:14:15;33.30;;;14.60;;
68256;SDS011;55069;51.568;4.656;2023-10-08T14:16:43;33.08;;;14.98;;
68256;SDS011;55069;51.568;4.656;2023-10-08T14:19:09;29.67;;;14.57;;
68256;SDS011;55069;51.568;4.656;2023-10-08T14:21:41;34.90;;;15.23;;
68256;SDS011;55069;51.568;4.656;2023-10-08T14:24:20;35.17;;;14.98;;
68256;SDS011;55069;51.568;4.656;2023-10-08T14:26:46;38.25;;;15.45;;
68256;SDS011;55069;51.568;4.656;2023-10-08T14:29:17;31.85;;;15.18;;
68256;SDS011;55069;51.568;4.656;2023-10-08T14:31:42;33.87;;;15.37;;
68256;SDS011;55069;51.568;4.656;2023-10-08T14:34:13;31.33;;;14.82;;
68256;SDS011;55069;51.568;4.656;2023-10-08T14:36:42;30.52;;;14.95;;
68256;SDS011;55069;51.568;4.656;2023-10-08T14:39:35;43.88;;;14.10;;
68256;SDS011;55069;51.568;4.656;2023-10-08T14:42:19;26.87;;;14.50;;
68256;SDS011;55069;51.568;4.656;2023-10-08T14:45:04;29.92;;;13.65;;
68256;SDS011;55069;51.568;4.656;2023-10-08T14:47:39;31.77;;;13.63;;
68256;SDS011;55069;51.568;4.656;2023-10-08T14:50:06;33.50;;;13.75;;
68256;SDS011;55069;51.568;4.656;2023-10-08T14:52:41;36.00;;;13.27;;
68256;SDS011;55069;51.568;4.656;2023-10-08T14:55:11;28.97;;;13.07;;
68256;SDS011;55069;51.568;4.656;2023-10-08T14:57:38;33.20;;;13.38;;
68256;SDS011;55069;51.568;4.656;2023-10-08T15:00:04;25.38;;;13.48;;